sensor_id;sensor_type;location;lat;lon;timestamp;temperature;humidity
1015;DHT22;8170;48.118;11.628;2023-02-28T00:00:13;-2.50;99.90
1015;DHT22;8170;48.118;11.628;2023-02-28T00:01:23;-2.50;99.90
1015;DHT22;8170;48.118;11.628;2023-02-28T00:02:35;-2.50;99.90
1015;DHT22;8170;48.118;11.628;2023-02-28T00:03:49;-2.60;99.90
1015;DHT22;8170;48.118;11.628;2023-02-28T00:04:56;-2.60;99.90
1015;DHT22;8170;48.118;11.628;2023-02-28T00:06:09;-2.60;99.90
1015;DHT22;8170;48.118;11.628;2023-02-28T00:07:23;-2.60;99.90
1015;DHT22;8170;48.118;11.628;2023-02-28T00:08:45;-2.60;99.90
1015;DHT22;8170;48.118;11.628;2023-02-28T00:09:53;-2.60;99.90
1015;DHT22;8170;48.118;11.628;2023-02-28T00:11:40;-2.60;99.90
1015;DHT22;8170;48.118;11.628;2023-02-28T00:13:51;-2.60;99.90
1015;DHT22;8170;48.118;11.628;2023-02-28T00:16:12;-2.60;99.90
1015;DHT22;8170;48.118;11.628;2023-02-28T00:17:41;-2.60;99.90
1015;DHT22;8170;48.118;11.628;2023-02-28T00:19:37;-2.70;99.90
1015;DHT22;8170;48.118;11.628;2023-02-28T00:21:13;-2.70;99.90
1015;DHT22;8170;48.118;11.628;2023-02-28T00:22:50;-2.70;99.90
1015;DHT22;8170;48.118;11.628;2023-02-28T00:24:55;-2.70;99.90
1015;DHT22;8170;48.118;11.628;2023-02-28T00:26:42;-2.70;99.90
1015;DHT22;8170;48.118;11.628;2023-02-28T00:28:40;-2.70;99.90
1015;DHT22;8170;48.118;11.628;2023-02-28T00:30:14;-2.80;99.90
1015;DHT22;8170;48.118;11.628;2023-02-28T00:31:53;-2.80;99.90
1015;DHT22;8170;48.118;11.628;2023-02-28T00:33:21;-2.80;99.90
1015;DHT22;8170;48.118;11.628;2023-02-28T00:34:59;-2.80;99.90
1015;DHT22;8170;48.118;11.628;2023-02-28T00:36:37;-2.80;99.90
1015;DHT22;8170;48.118;11.628;2023-02-28T00:38:06;-2.80;99.90
1015;DHT22;8170;48.118;11.628;2023-02-28T00:43:15;-2.80;99.90
1015;DHT22;8170;48.118;11.628;2023-02-28T00:47:34;-2.90;99.90
1015;DHT22;8170;48.118;11.628;2023-02-28T00:55:28;-2.90;99.90
1015;DHT22;8170;48.118;11.628;2023-02-28T00:57:39;-2.90;99.90
1015;DHT22;8170;48.118;11.628;2023-02-28T00:59:48;-2.90;99.90
1015;DHT22;8170;48.118;11.628;2023-02-28T01:01:18;-3.00;99.90
1015;DHT22;8170;48.118;11.628;2023-02-28T01:02:56;-3.00;99.90
1015;DHT22;8170;48.118;11.628;2023-02-28T01:04:56;-3.00;99.90
1015;DHT22;8170;48.118;11.628;2023-02-28T01:07:18;-3.00;99.90
1015;DHT22;8170;48.118;11.628;2023-02-28T01:09:37;-3.00;99.90
1015;DHT22;8170;48.118;11.628;2023-02-28T01:16:54;-3.00;99.90
1015;DHT22;8170;48.118;11.628;2023-02-28T01:21:39;-3.10;99.90
1015;DHT22;8170;48.118;11.628;2023-02-28T01:23:56;-3.10;99.90
1015;DHT22;8170;48.118;11.628;2023-02-28T01:25:49;-3.10;99.90
1015;DHT22;8170;48.118;11.628;2023-02-28T01:27:08;-3.20;99.90
1015;DHT22;8170;48.118;11.628;2023-02-28T01:29:29;-3.10;99.90
1015;DHT22;8170;48.118;11.628;2023-02-28T01:30:59;-3.10;99.90
1015;DHT22;8170;48.118;11.628;2023-02-28T01:32:29;-3.10;99.90
1015;DHT22;8170;48.118;11.628;2023-02-28T01:34:27;-3.10;99.90
1015;DHT22;8170;48.118;11.628;2023-02-28T01:36:57;-3.10;99.90
1015;DHT22;8170;48.118;11.628;2023-02-28T01:38:58;-3.10;99.90
1015;DHT22;8170;48.118;11.628;2023-02-28T01:40:26;-3.20;99.90
1015;DHT22;8170;48.118;11.628;2023-02-28T01:41:47;-3.20;99.90
1015;DHT22;8170;48.118;11.628;2023-02-28T01:43:23;-3.20;99.90
1015;DHT22;8170;48.118;11.628;2023-02-28T01:45:32;-3.20;99.90
1015;DHT22;8170;48.118;11.628;2023-02-28T01:47:29;-3.20;99.90
1015;DHT22;8170;48.118;11.628;2023-02-28T01:49:29;-3.20;99.90
1015;DHT22;8170;48.118;11.628;2023-02-28T01:51:16;-3.20;99.90
1015;DHT22;8170;48.118;11.628;2023-02-28T01:53:08;-3.20;99.90
1015;DHT22;8170;48.118;11.628;2023-02-28T01:54:59;-3.20;99.90
1015;DHT22;8170;48.118;11.628;2023-02-28T01:59:50;-3.30;99.90
1015;DHT22;8170;48.118;11.628;2023-02-28T02:02:04;-3.20;99.90
1015;DHT22;8170;48.118;11.628;2023-02-28T02:03:37;-3.30;99.90
1015;DHT22;8170;48.118;11.628;2023-02-28T02:04:57;-3.30;99.90
1015;DHT22;8170;48.118;11.628;2023-02-28T02:06:29;-3.30;99.90
1015;DHT22;8170;48.118;11.628;2023-02-28T02:08:38;-3.30;99.90
1015;DHT22;8170;48.118;11.628;2023-02-28T02:10:20;-3.30;99.90
1015;DHT22;8170;48.118;11.628;2023-02-28T02:11:57;-3.30;99.90
1015;DHT22;8170;48.118;11.628;2023-02-28T02:16:17;-3.30;99.90
1015;DHT22;8170;48.118;11.628;2023-02-28T02:17:43;-3.30;99.90
1015;DHT22;8170;48.118;11.628;2023-02-28T02:19:27;-3.30;99.90
1015;DHT22;8170;48.118;11.628;2023-02-28T02:21:57;-3.30;99.90
1015;DHT22;8170;48.118;11.628;2023-02-28T02:26:27;-3.40;99.90
1015;DHT22;8170;48.118;11.628;2023-02-28T02:36:11;-3.40;99.90
1015;DHT22;8170;48.118;11.628;2023-02-28T02:37:29;-3.40;99.90
1015;DHT22;8170;48.118;11.628;2023-02-28T02:39:39;-3.40;99.90
1015;DHT22;8170;48.118;11.628;2023-02-28T02:41:19;-3.40;99.90
1015;DHT22;8170;48.118;11.628;2023-02-28T04:14:36;-3.70;99.90
1015;DHT22;8170;48.118;11.628;2023-02-28T04:15:49;-3.70;99.90
1015;DHT22;8170;48.118;11.628;2023-02-28T04:17:27;-3.70;99.90
1015;DHT22;8170;48.118;11.628;2023-02-28T04:18:39;-3.70;99.90
1015;DHT22;8170;48.118;11.628;2023-02-28T04:20:06;-3.70;99.90
1015;DHT22;8170;48.118;11.628;2023-02-28T04:23:28;-3.70;99.90
1015;DHT22;8170;48.118;11.628;2023-02-28T04:24:58;-3.70;99.90
1015;DHT22;8170;48.118;11.628;2023-02-28T04:26:18;-3.70;99.90
1015;DHT22;8170;48.118;11.628;2023-02-28T04:27:59;-3.60;99.90
1015;DHT22;8170;48.118;11.628;2023-02-28T04:29:18;-3.70;99.90
1015;DHT22;8170;48.118;11.628;2023-02-28T04:30:59;-3.70;99.90
1015;DHT22;8170;48.118;11.628;2023-02-28T04:32:19;-3.60;99.90
1015;DHT22;8170;48.118;11.628;2023-02-28T04:33:47;-3.60;99.90
1015;DHT22;8170;48.118;11.628;2023-02-28T04:34:59;-3.60;99.90
1015;DHT22;8170;48.118;11.628;2023-02-28T04:36:36;-3.60;99.90
1015;DHT22;8170;48.118;11.628;2023-02-28T04:37:57;-3.50;99.90
1015;DHT22;8170;48.118;11.628;2023-02-28T04:39:56;-3.50;99.90
1015;DHT22;8170;48.118;11.628;2023-02-28T04:41:38;-3.50;99.90
1015;DHT22;8170;48.118;11.628;2023-02-28T04:47:49;-3.40;99.90
1015;DHT22;8170;48.118;11.628;2023-02-28T04:49:18;-3.30;99.90
1015;DHT22;8170;48.118;11.628;2023-02-28T04:51:59;-3.30;99.90
1015;DHT22;8170;48.118;11.628;2023-02-28T04:53:39;-3.30;99.90
1015;DHT22;8170;48.118;11.628;2023-02-28T04:59:09;-3.20;99.90
1015;DHT22;8170;48.118;11.628;2023-02-28T05:01:28;-3.20;99.90
1015;DHT22;8170;48.118;11.628;2023-02-28T05:04:27;-3.20;99.90
1015;DHT22;8170;48.118;11.628;2023-02-28T05:05:58;-3.10;99.90
1015;DHT22;8170;48.118;11.628;2023-02-28T05:07:19;-3.10;99.90
1015;DHT22;8170;48.118;11.628;2023-02-28T05:24:40;-3.00;99.90
1015;DHT22;8170;48.118;11.628;2023-02-28T05:30:58;-2.90;99.90
1015;DHT22;8170;48.118;11.628;2023-02-28T05:35:58;-2.90;99.90
1015;DHT22;8170;48.118;11.628;2023-02-28T05:40:48;-2.80;99.90
1015;DHT22;8170;48.118;11.628;2023-02-28T05:42:47;-2.80;99.90
1015;DHT22;8170;48.118;11.628;2023-02-28T05:43:58;-2.80;99.90
1015;DHT22;8170;48.118;11.628;2023-02-28T05:45:57;-2.80;99.90
1015;DHT22;8170;48.118;11.628;2023-02-28T05:47:56;-2.70;99.90
1015;DHT22;8170;48.118;11.628;2023-02-28T05:49:57;-2.70;99.90
1015;DHT22;8170;48.118;11.628;2023-02-28T05:52:00;-2.70;99.90
1015;DHT22;8170;48.118;11.628;2023-02-28T06:04:27;-2.60;99.90
1015;DHT22;8170;48.118;11.628;2023-02-28T06:05:59;-2.60;99.90
1015;DHT22;8170;48.118;11.628;2023-02-28T06:07:49;-2.60;99.90
1015;DHT22;8170;48.118;11.628;2023-02-28T06:09:18;-2.60;99.90
1015;DHT22;8170;48.118;11.628;2023-02-28T06:10:38;-2.60;99.90
1015;DHT22;8170;48.118;11.628;2023-02-28T06:11:58;-2.60;99.90
1015;DHT22;8170;48.118;11.628;2023-02-28T06:13:18;-2.50;99.90
1015;DHT22;8170;48.118;11.628;2023-02-28T06:15:00;-2.60;99.90
1015;DHT22;8170;48.118;11.628;2023-02-28T06:17:41;-2.50;99.90
1015;DHT22;8170;48.118;11.628;2023-02-28T06:22:59;-2.40;99.90
1015;DHT22;8170;48.118;11.628;2023-02-28T06:24:18;-2.50;99.90
1015;DHT22;8170;48.118;11.628;2023-02-28T06:32:37;-2.40;99.90
1015;DHT22;8170;48.118;11.628;2023-02-28T06:34:48;-2.40;99.90
1015;DHT22;8170;48.118;11.628;2023-02-28T06:39:46;-2.40;99.90
1015;DHT22;8170;48.118;11.628;2023-02-28T06:41:06;-2.40;99.90
1015;DHT22;8170;48.118;11.628;2023-02-28T06:42:39;-2.40;99.90
1015;DHT22;8170;48.118;11.628;2023-02-28T06:47:40;-2.50;99.90
1015;DHT22;8170;48.118;11.628;2023-02-28T07:10:16;-2.20;99.90
1015;DHT22;8170;48.118;11.628;2023-02-28T07:16:30;-2.30;99.90
1015;DHT22;8170;48.118;11.628;2023-02-28T07:23:05;-2.30;99.90
1015;DHT22;8170;48.118;11.628;2023-02-28T07:24:40;-2.30;99.90
1015;DHT22;8170;48.118;11.628;2023-02-28T07:26:54;-2.20;99.90
1015;DHT22;8170;48.118;11.628;2023-02-28T07:28:27;-2.20;99.90
1015;DHT22;8170;48.118;11.628;2023-02-28T07:29:59;-2.20;99.90
1015;DHT22;8170;48.118;11.628;2023-02-28T07:31:40;-2.20;99.90
1015;DHT22;8170;48.118;11.628;2023-02-28T07:33:25;-2.20;99.90
1015;DHT22;8170;48.118;11.628;2023-02-28T07:35:23;-2.20;99.90
1015;DHT22;8170;48.118;11.628;2023-02-28T07:37:40;-2.20;99.90
1015;DHT22;8170;48.118;11.628;2023-02-28T07:42:52;-2.10;99.90
1015;DHT22;8170;48.118;11.628;2023-02-28T07:44:40;-2.10;99.90
1015;DHT22;8170;48.118;11.628;2023-02-28T07:47:01;-2.10;99.90
1015;DHT22;8170;48.118;11.628;2023-02-28T07:48:15;-2.10;99.90
1015;DHT22;8170;48.118;11.628;2023-02-28T07:51:52;-2.00;99.90
1015;DHT22;8170;48.118;11.628;2023-02-28T07:53:49;-2.00;99.90
1015;DHT22;8170;48.118;11.628;2023-02-28T07:55:22;-2.00;99.90
1015;DHT22;8170;48.118;11.628;2023-02-28T07:57:17;-2.00;99.90
1015;DHT22;8170;48.118;11.628;2023-02-28T08:01:09;-1.90;99.90
1015;DHT22;8170;48.118;11.628;2023-02-28T08:02:34;-2.00;99.90
1015;DHT22;8170;48.118;11.628;2023-02-28T08:04:21;-2.00;99.90
1015;DHT22;8170;48.118;11.628;2023-02-28T08:06:04;-1.90;99.90
1015;DHT22;8170;48.118;11.628;2023-02-28T08:07:50;-1.80;99.90
1015;DHT22;8170;48.118;11.628;2023-02-28T08:09:53;-1.80;99.90
1015;DHT22;8170;48.118;11.628;2023-02-28T08:11:30;-1.80;99.90
1015;DHT22;8170;48.118;11.628;2023-02-28T08:12:58;-1.80;99.90
1015;DHT22;8170;48.118;11.628;2023-02-28T08:14:24;-1.80;99.90
1015;DHT22;8170;48.118;11.628;2023-02-28T08:16:04;-1.70;99.90
1015;DHT22;8170;48.118;11.628;2023-02-28T08:17:33;-1.80;99.90
1015;DHT22;8170;48.118;11.628;2023-02-28T08:19:15;-1.70;99.90
1015;DHT22;8170;48.118;11.628;2023-02-28T08:20:47;-1.70;99.90
1015;DHT22;8170;48.118;11.628;2023-02-28T08:22:06;-1.70;99.90
1015;DHT22;8170;48.118;11.628;2023-02-28T08:23:29;-1.70;99.90
1015;DHT22;8170;48.118;11.628;2023-02-28T08:24:43;-1.70;99.90
1015;DHT22;8170;48.118;11.628;2023-02-28T08:25:56;-1.70;99.90
1015;DHT22;8170;48.118;11.628;2023-02-28T08:27:06;-1.60;99.90
1015;DHT22;8170;48.118;11.628;2023-02-28T08:28:18;-1.70;99.90
1015;DHT22;8170;48.118;11.628;2023-02-28T08:29:23;-1.70;99.90
1015;DHT22;8170;48.118;11.628;2023-02-28T08:30:42;-1.70;99.90
1015;DHT22;8170;48.118;11.628;2023-02-28T08:31:45;-1.80;99.90
1015;DHT22;8170;48.118;11.628;2023-02-28T08:32:48;-1.90;99.90
1015;DHT22;8170;48.118;11.628;2023-02-28T08:33:52;-1.90;99.90
1015;DHT22;8170;48.118;11.628;2023-02-28T08:34:55;-1.90;99.90
1015;DHT22;8170;48.118;11.628;2023-02-28T08:35:58;-1.90;99.90
1015;DHT22;8170;48.118;11.628;2023-02-28T08:37:01;-1.80;99.90
1015;DHT22;8170;48.118;11.628;2023-02-28T08:38:04;-1.80;99.90
1015;DHT22;8170;48.118;11.628;2023-02-28T08:39:08;-1.70;99.90
1015;DHT22;8170;48.118;11.628;2023-02-28T08:40:15;-1.70;99.90
1015;DHT22;8170;48.118;11.628;2023-02-28T08:41:28;-1.60;99.90
1015;DHT22;8170;48.118;11.628;2023-02-28T08:42:34;-1.70;99.90
1015;DHT22;8170;48.118;11.628;2023-02-28T08:43:40;-1.60;99.90
1015;DHT22;8170;48.118;11.628;2023-02-28T08:44:44;-1.60;99.90
1015;DHT22;8170;48.118;11.628;2023-02-28T08:45:46;-1.50;99.90
1015;DHT22;8170;48.118;11.628;2023-02-28T08:46:50;-1.50;99.90
1015;DHT22;8170;48.118;11.628;2023-02-28T08:47:54;-1.40;99.90
1015;DHT22;8170;48.118;11.628;2023-02-28T08:48:57;-1.40;99.90
1015;DHT22;8170;48.118;11.628;2023-02-28T08:50:04;-1.40;99.90
1015;DHT22;8170;48.118;11.628;2023-02-28T08:51:09;-1.40;99.90
1015;DHT22;8170;48.118;11.628;2023-02-28T08:52:15;-1.40;99.90
1015;DHT22;8170;48.118;11.628;2023-02-28T08:53:25;-1.50;99.90
1015;DHT22;8170;48.118;11.628;2023-02-28T08:54:29;-1.40;99.90
1015;DHT22;8170;48.118;11.628;2023-02-28T08:55:39;-1.40;99.90
1015;DHT22;8170;48.118;11.628;2023-02-28T08:56:44;-1.40;99.90
1015;DHT22;8170;48.118;11.628;2023-02-28T08:57:49;-1.40;99.90
1015;DHT22;8170;48.118;11.628;2023-02-28T08:58:59;-1.30;99.90
1015;DHT22;8170;48.118;11.628;2023-02-28T09:00:03;-1.30;99.90
1015;DHT22;8170;48.118;11.628;2023-02-28T09:01:10;-1.30;99.90
1015;DHT22;8170;48.118;11.628;2023-02-28T09:02:15;-1.30;99.90
1015;DHT22;8170;48.118;11.628;2023-02-28T09:03:22;-1.20;99.90
1015;DHT22;8170;48.118;11.628;2023-02-28T09:04:27;-1.20;99.90
1015;DHT22;8170;48.118;11.628;2023-02-28T09:05:36;-1.20;99.90
1015;DHT22;8170;48.118;11.628;2023-02-28T09:06:42;-1.20;99.90
1015;DHT22;8170;48.118;11.628;2023-02-28T09:07:49;-1.30;99.90
1015;DHT22;8170;48.118;11.628;2023-02-28T09:08:56;-1.30;99.90
1015;DHT22;8170;48.118;11.628;2023-02-28T09:10:02;-1.20;99.90
1015;DHT22;8170;48.118;11.628;2023-02-28T09:11:08;-1.20;99.90
1015;DHT22;8170;48.118;11.628;2023-02-28T09:12:11;-1.30;99.90
1015;DHT22;8170;48.118;11.628;2023-02-28T09:13:16;-1.30;99.90
1015;DHT22;8170;48.118;11.628;2023-02-28T09:14:18;-1.30;99.90
1015;DHT22;8170;48.118;11.628;2023-02-28T09:15:21;-1.30;99.90
1015;DHT22;8170;48.118;11.628;2023-02-28T09:16:25;-1.40;99.90
1015;DHT22;8170;48.118;11.628;2023-02-28T09:17:29;-1.40;99.90
1015;DHT22;8170;48.118;11.628;2023-02-28T09:18:37;-1.40;99.90
1015;DHT22;8170;48.118;11.628;2023-02-28T09:19:40;-1.30;99.90
1015;DHT22;8170;48.118;11.628;2023-02-28T09:20:45;-1.30;99.90
1015;DHT22;8170;48.118;11.628;2023-02-28T09:21:48;-1.40;99.90
1015;DHT22;8170;48.118;11.628;2023-02-28T09:22:54;-1.30;99.90
1015;DHT22;8170;48.118;11.628;2023-02-28T09:24:03;-1.40;99.90
1015;DHT22;8170;48.118;11.628;2023-02-28T09:25:26;-1.30;99.90
1015;DHT22;8170;48.118;11.628;2023-02-28T09:26:37;-1.30;99.90
1015;DHT22;8170;48.118;11.628;2023-02-28T09:27:48;-1.30;99.90
1015;DHT22;8170;48.118;11.628;2023-02-28T09:28:53;-1.30;99.90
1015;DHT22;8170;48.118;11.628;2023-02-28T09:29:55;-1.20;99.90
1015;DHT22;8170;48.118;11.628;2023-02-28T09:30:59;-1.30;99.90
1015;DHT22;8170;48.118;11.628;2023-02-28T09:32:06;-1.20;99.90
1015;DHT22;8170;48.118;11.628;2023-02-28T09:33:19;-1.10;99.90
1015;DHT22;8170;48.118;11.628;2023-02-28T09:34:37;-1.00;99.90
1015;DHT22;8170;48.118;11.628;2023-02-28T09:35:46;-1.00;99.90
1015;DHT22;8170;48.118;11.628;2023-02-28T09:37:02;-1.00;99.90
1015;DHT22;8170;48.118;11.628;2023-02-28T09:38:12;-1.00;99.90
1015;DHT22;8170;48.118;11.628;2023-02-28T09:39:36;-0.90;99.90
1015;DHT22;8170;48.118;11.628;2023-02-28T09:41:08;-0.80;99.90
1015;DHT22;8170;48.118;11.628;2023-02-28T09:42:36;-0.80;99.90
1015;DHT22;8170;48.118;11.628;2023-02-28T09:43:51;-0.80;99.90
1015;DHT22;8170;48.118;11.628;2023-02-28T09:45:25;-0.90;99.90
1015;DHT22;8170;48.118;11.628;2023-02-28T09:46:40;-1.00;99.90
1015;DHT22;8170;48.118;11.628;2023-02-28T09:48:10;-1.00;99.90
1015;DHT22;8170;48.118;11.628;2023-02-28T09:49:37;-1.10;99.90
1015;DHT22;8170;48.118;11.628;2023-02-28T09:51:03;-1.00;99.90
1015;DHT22;8170;48.118;11.628;2023-02-28T09:52:38;-0.90;99.90
1015;DHT22;8170;48.118;11.628;2023-02-28T09:54:00;-1.00;99.90
1015;DHT22;8170;48.118;11.628;2023-02-28T09:55:44;-1.00;99.90
1015;DHT22;8170;48.118;11.628;2023-02-28T09:57:11;-1.00;99.90
1015;DHT22;8170;48.118;11.628;2023-02-28T09:58:36;-1.00;99.90
1015;DHT22;8170;48.118;11.628;2023-02-28T10:00:04;-1.10;99.90
1015;DHT22;8170;48.118;11.628;2023-02-28T10:01:28;-1.10;99.90
1015;DHT22;8170;48.118;11.628;2023-02-28T10:02:59;-1.10;99.90
1015;DHT22;8170;48.118;11.628;2023-02-28T10:04:58;-1.00;99.90
1015;DHT22;8170;48.118;11.628;2023-02-28T10:06:17;-0.90;99.90
1015;DHT22;8170;48.118;11.628;2023-02-28T10:07:53;-0.80;99.90
1015;DHT22;8170;48.118;11.628;2023-02-28T10:09:27;-0.70;99.90
1015;DHT22;8170;48.118;11.628;2023-02-28T10:12:15;-0.70;99.90
1015;DHT22;8170;48.118;11.628;2023-02-28T10:13:30;-0.70;99.90
1015;DHT22;8170;48.118;11.628;2023-02-28T10:14:53;-0.80;99.90
1015;DHT22;8170;48.118;11.628;2023-02-28T10:16:27;-0.70;99.90
1015;DHT22;8170;48.118;11.628;2023-02-28T10:17:56;-0.70;99.90
1015;DHT22;8170;48.118;11.628;2023-02-28T10:19:22;-0.70;99.90
1015;DHT22;8170;48.118;11.628;2023-02-28T10:20:43;-0.60;99.90
1015;DHT22;8170;48.118;11.628;2023-02-28T10:22:17;-0.60;99.90
1015;DHT22;8170;48.118;11.628;2023-02-28T10:24:04;-0.50;99.90
1015;DHT22;8170;48.118;11.628;2023-02-28T10:25:25;-0.40;99.90
1015;DHT22;8170;48.118;11.628;2023-02-28T10:26:44;-0.30;99.90
1015;DHT22;8170;48.118;11.628;2023-02-28T10:28:19;-0.30;99.90
1015;DHT22;8170;48.118;11.628;2023-02-28T10:29:46;-0.20;99.90
1015;DHT22;8170;48.118;11.628;2023-02-28T10:30:51;-0.20;99.90
1015;DHT22;8170;48.118;11.628;2023-02-28T10:32:01;-0.10;99.90
1015;DHT22;8170;48.118;11.628;2023-02-28T10:33:21;0.00;99.90
1015;DHT22;8170;48.118;11.628;2023-02-28T10:34:35;0.00;99.90
1015;DHT22;8170;48.118;11.628;2023-02-28T10:35:39;-0.10;99.90
1015;DHT22;8170;48.118;11.628;2023-02-28T10:36:42;0.00;99.90
1015;DHT22;8170;48.118;11.628;2023-02-28T10:37:49;0.00;99.90
1015;DHT22;8170;48.118;11.628;2023-02-28T10:38:51;0.10;99.90
1015;DHT22;8170;48.118;11.628;2023-02-28T10:39:54;0.10;99.90
1015;DHT22;8170;48.118;11.628;2023-02-28T10:41:08;0.00;99.90
1015;DHT22;8170;48.118;11.628;2023-02-28T10:42:21;0.00;99.90
1015;DHT22;8170;48.118;11.628;2023-02-28T10:43:27;0.10;99.90
1015;DHT22;8170;48.118;11.628;2023-02-28T10:44:31;0.10;99.90
1015;DHT22;8170;48.118;11.628;2023-02-28T10:45:35;0.20;99.90
1015;DHT22;8170;48.118;11.628;2023-02-28T10:46:40;0.30;99.90
1015;DHT22;8170;48.118;11.628;2023-02-28T10:47:52;0.30;99.90
1015;DHT22;8170;48.118;11.628;2023-02-28T10:49:01;0.40;99.90
1015;DHT22;8170;48.118;11.628;2023-02-28T10:50:08;0.50;99.90
1015;DHT22;8170;48.118;11.628;2023-02-28T10:51:35;0.50;99.90
1015;DHT22;8170;48.118;11.628;2023-02-28T10:52:40;0.50;99.90
1015;DHT22;8170;48.118;11.628;2023-02-28T10:53:48;0.50;99.90
1015;DHT22;8170;48.118;11.628;2023-02-28T10:55:20;0.60;99.90
1015;DHT22;8170;48.118;11.628;2023-02-28T10:56:24;0.60;99.90
1015;DHT22;8170;48.118;11.628;2023-02-28T10:57:30;0.60;99.90
1015;DHT22;8170;48.118;11.628;2023-02-28T10:58:47;0.70;99.90
1015;DHT22;8170;48.118;11.628;2023-02-28T10:59:52;0.70;99.90
1015;DHT22;8170;48.118;11.628;2023-02-28T11:00:57;0.70;99.90
1015;DHT22;8170;48.118;11.628;2023-02-28T11:02:29;0.60;99.90
1015;DHT22;8170;48.118;11.628;2023-02-28T11:03:35;0.60;99.90
1015;DHT22;8170;48.118;11.628;2023-02-28T11:04:38;0.50;99.90
1015;DHT22;8170;48.118;11.628;2023-02-28T11:05:47;0.50;99.90
1015;DHT22;8170;48.118;11.628;2023-02-28T11:06:58;0.60;99.90
1015;DHT22;8170;48.118;11.628;2023-02-28T11:08:05;0.50;99.90
1015;DHT22;8170;48.118;11.628;2023-02-28T11:09:27;0.50;99.90
1015;DHT22;8170;48.118;11.628;2023-02-28T11:10:32;0.50;99.90
1015;DHT22;8170;48.118;11.628;2023-02-28T11:11:43;0.50;99.90
1015;DHT22;8170;48.118;11.628;2023-02-28T11:12:47;0.50;99.90
1015;DHT22;8170;48.118;11.628;2023-02-28T11:13:57;0.50;99.90
1015;DHT22;8170;48.118;11.628;2023-02-28T11:15:18;0.60;99.90
1015;DHT22;8170;48.118;11.628;2023-02-28T11:16:32;0.50;99.90
1015;DHT22;8170;48.118;11.628;2023-02-28T11:17:36;0.60;99.90
1015;DHT22;8170;48.118;11.628;2023-02-28T11:18:43;0.60;99.90
1015;DHT22;8170;48.118;11.628;2023-02-28T11:19:51;0.70;99.90
1015;DHT22;8170;48.118;11.628;2023-02-28T11:20:57;0.80;99.90
1015;DHT22;8170;48.118;11.628;2023-02-28T11:22:02;0.80;99.90
1015;DHT22;8170;48.118;11.628;2023-02-28T11:23:12;0.90;99.90
1015;DHT22;8170;48.118;11.628;2023-02-28T11:24:23;0.90;99.90
1015;DHT22;8170;48.118;11.628;2023-02-28T11:25:31;0.90;99.90
1015;DHT22;8170;48.118;11.628;2023-02-28T11:26:43;0.90;99.90
1015;DHT22;8170;48.118;11.628;2023-02-28T11:27:49;0.80;99.90
1015;DHT22;8170;48.118;11.628;2023-02-28T11:29:08;0.90;99.90
1015;DHT22;8170;48.118;11.628;2023-02-28T11:30:25;1.00;99.90
1015;DHT22;8170;48.118;11.628;2023-02-28T11:31:27;1.00;99.90
1015;DHT22;8170;48.118;11.628;2023-02-28T11:32:32;1.10;99.90
1015;DHT22;8170;48.118;11.628;2023-02-28T11:33:43;1.20;99.90
1015;DHT22;8170;48.118;11.628;2023-02-28T11:35:00;1.10;99.90
1015;DHT22;8170;48.118;11.628;2023-02-28T11:36:09;1.00;99.90
1015;DHT22;8170;48.118;11.628;2023-02-28T11:37:14;1.00;99.90
1015;DHT22;8170;48.118;11.628;2023-02-28T11:38:18;0.90;99.90
1015;DHT22;8170;48.118;11.628;2023-02-28T11:39:20;0.90;99.90
1015;DHT22;8170;48.118;11.628;2023-02-28T11:40:30;0.90;99.90
1015;DHT22;8170;48.118;11.628;2023-02-28T11:41:58;0.90;99.90
1015;DHT22;8170;48.118;11.628;2023-02-28T11:43:12;1.10;99.90
1015;DHT22;8170;48.118;11.628;2023-02-28T11:44:41;1.10;99.90
1015;DHT22;8170;48.118;11.628;2023-02-28T11:45:58;1.20;99.90
1015;DHT22;8170;48.118;11.628;2023-02-28T11:47:11;1.30;99.90
1015;DHT22;8170;48.118;11.628;2023-02-28T11:48:20;1.30;99.90
1015;DHT22;8170;48.118;11.628;2023-02-28T11:49:34;1.30;99.90
1015;DHT22;8170;48.118;11.628;2023-02-28T11:50:54;1.30;99.90
1015;DHT22;8170;48.118;11.628;2023-02-28T11:52:02;1.30;99.90
1015;DHT22;8170;48.118;11.628;2023-02-28T11:53:20;1.30;99.90
1015;DHT22;8170;48.118;11.628;2023-02-28T11:54:41;1.40;99.90
1015;DHT22;8170;48.118;11.628;2023-02-28T11:55:51;1.40;99.90
1015;DHT22;8170;48.118;11.628;2023-02-28T11:56:57;1.30;99.90
1015;DHT22;8170;48.118;11.628;2023-02-28T11:58:11;1.50;99.90
1015;DHT22;8170;48.118;11.628;2023-02-28T11:59:39;1.60;99.90
1015;DHT22;8170;48.118;11.628;2023-02-28T12:01:01;1.80;99.90
1015;DHT22;8170;48.118;11.628;2023-02-28T12:02:20;1.90;99.90
1015;DHT22;8170;48.118;11.628;2023-02-28T12:03:30;2.00;99.90
1015;DHT22;8170;48.118;11.628;2023-02-28T12:04:49;2.10;99.90
1015;DHT22;8170;48.118;11.628;2023-02-28T12:06:13;2.30;99.90
1015;DHT22;8170;48.118;11.628;2023-02-28T12:07:24;2.20;99.90
1015;DHT22;8170;48.118;11.628;2023-02-28T12:08:47;2.20;99.90
1015;DHT22;8170;48.118;11.628;2023-02-28T12:10:01;2.20;99.90
1015;DHT22;8170;48.118;11.628;2023-02-28T12:11:12;2.00;99.90
1015;DHT22;8170;48.118;11.628;2023-02-28T12:12:23;2.00;99.90
1015;DHT22;8170;48.118;11.628;2023-02-28T12:13:36;2.20;99.90
1015;DHT22;8170;48.118;11.628;2023-02-28T12:16:31;2.20;99.90
1015;DHT22;8170;48.118;11.628;2023-02-28T12:17:48;2.30;99.90
1015;DHT22;8170;48.118;11.628;2023-02-28T12:19:11;2.00;99.90
1015;DHT22;8170;48.118;11.628;2023-02-28T12:20:23;2.00;99.90
1015;DHT22;8170;48.118;11.628;2023-02-28T12:21:38;2.10;99.90
1015;DHT22;8170;48.118;11.628;2023-02-28T12:22:50;2.10;99.90
1015;DHT22;8170;48.118;11.628;2023-02-28T12:24:03;2.10;99.90
1015;DHT22;8170;48.118;11.628;2023-02-28T12:25:41;2.10;99.90
1015;DHT22;8170;48.118;11.628;2023-02-28T12:26:49;2.00;99.90
1015;DHT22;8170;48.118;11.628;2023-02-28T12:27:54;2.00;99.90
1015;DHT22;8170;48.118;11.628;2023-02-28T12:29:00;2.00;99.90
1015;DHT22;8170;48.118;11.628;2023-02-28T12:30:08;2.00;99.90
1015;DHT22;8170;48.118;11.628;2023-02-28T12:31:19;1.90;99.90
1015;DHT22;8170;48.118;11.628;2023-02-28T12:32:27;1.90;99.90
1015;DHT22;8170;48.118;11.628;2023-02-28T12:33:36;2.00;99.90
1015;DHT22;8170;48.118;11.628;2023-02-28T12:34:44;2.30;99.90
1015;DHT22;8170;48.118;11.628;2023-02-28T12:35:52;2.40;99.90
1015;DHT22;8170;48.118;11.628;2023-02-28T12:37:07;2.50;99.90
1015;DHT22;8170;48.118;11.628;2023-02-28T12:38:55;2.50;99.90
1015;DHT22;8170;48.118;11.628;2023-02-28T12:42:28;2.80;99.90
1015;DHT22;8170;48.118;11.628;2023-02-28T12:46:47;2.70;99.90
1015;DHT22;8170;48.118;11.628;2023-02-28T12:48:59;2.60;99.90
1015;DHT22;8170;48.118;11.628;2023-02-28T12:52:28;2.20;99.90
1015;DHT22;8170;48.118;11.628;2023-02-28T12:54:35;2.10;99.90
1015;DHT22;8170;48.118;11.628;2023-02-28T12:56:46;2.20;99.90
1015;DHT22;8170;48.118;11.628;2023-02-28T12:59:33;2.30;99.90
1015;DHT22;8170;48.118;11.628;2023-02-28T13:10:56;2.70;99.90
1015;DHT22;8170;48.118;11.628;2023-02-28T13:12:36;2.80;99.90
1015;DHT22;8170;48.118;11.628;2023-02-28T13:13:44;2.80;99.90
1015;DHT22;8170;48.118;11.628;2023-02-28T13:18:42;2.90;99.90
1015;DHT22;8170;48.118;11.628;2023-02-28T13:31:43;2.90;99.90
1015;DHT22;8170;48.118;11.628;2023-02-28T13:35:56;3.30;99.90
1015;DHT22;8170;48.118;11.628;2023-02-28T13:39:44;3.10;99.90
1015;DHT22;8170;48.118;11.628;2023-02-28T13:40:32;3.10;99.90
1015;DHT22;8170;48.118;11.628;2023-02-28T13:42:55;3.10;99.90
1015;DHT22;8170;48.118;11.628;2023-02-28T13:45:29;3.10;99.90
1015;DHT22;8170;48.118;11.628;2023-02-28T13:48:00;3.00;99.90
1015;DHT22;8170;48.118;11.628;2023-02-28T13:50:48;3.10;99.90
1015;DHT22;8170;48.118;11.628;2023-02-28T13:54:31;3.00;99.90